Time;durP1;ratioP1;P1;durP2;ratioP2;P2;SDS_P1;SDS_P2;PMS_P1;PMS_P2;Temp;Humidity;BMP_temperature;BMP_pressure;BME280_temperature;BME280_humidity;BME280_pressure;Samples;Min_cycle;Max_cycle;Signal;HPM_P1;HPM_P2
2023/08/14 00:01:18;;;;;;;9.07;6.45;;;;;;;;;;5056366;28;20545;-78
2023/08/14 00:03:44;;;;;;;7.85;7.20;;;;;;;;;;5039716;28;20086;-78
2023/08/14 00:06:11;;;;;;;8.50;7.07;;;;;;;;;;5056268;28;20037;-77
2023/08/14 00:08:37;;;;;;;8.10;7.25;;;;;;;;;;5056457;28;20087;-78
2023/08/14 00:11:03;;;;;;;10.35;9.32;;;;;;;;;;5056235;28;20475;-78
2023/08/14 00:13:29;;;;;;;9.35;8.48;;;;;;;;;;5073659;28;20098;-78
2023/08/14 00:15:55;;;;;;;9.70;8.80;;;;;;;;;;5056200;28;20139;-78
2023/08/14 00:18:21;;;;;;;9.52;8.63;;;;;;;;;;5055904;28;20051;-78
2023/08/14 00:20:47;;;;;;;9.88;8.85;;;;;;;;;;5056167;28;20047;-78
2023/08/14 00:23:13;;;;;;;8.80;7.82;;;;;;;;;;5055938;28;20377;-78
2023/08/14 00:25:39;;;;;;;10.95;9.85;;;;;;;;;;5055851;28;20118;-78
2023/08/14 00:28:05;;;;;;;9.40;8.57;;;;;;;;;;5055375;28;20045;-78
2023/08/14 00:30:32;;;;;;;8.20;7.50;;;;;;;;;;5074044;28;20048;-78
2023/08/14 00:32:58;;;;;;;13.55;11.73;;;;;;;;;;5056155;28;20105;-78
2023/08/14 00:35:24;;;;;;;10.52;9.73;;;;;;;;;;5073428;28;20044;-78
2023/08/14 00:37:50;;;;;;;9.07;8.30;;;;;;;;;;5073537;28;20048;-78
2023/08/14 00:40:17;;;;;;;9.32;8.70;;;;;;;;;;5055314;28;20048;-78
2023/08/14 00:42:47;;;;;;;9.43;8.38;;;;;;;;;;5055906;28;20050;-78
2023/08/14 00:45:13;;;;;;;8.32;7.43;;;;;;;;;;5055679;28;20415;-78
2023/08/14 00:47:40;;;;;;;8.77;7.97;;;;;;;;;;5055702;28;20055;-78
2023/08/14 00:50:07;;;;;;;8.65;8.07;;;;;;;;;;5055459;28;20511;-78
2023/08/14 00:52:35;;;;;;;8.40;7.68;;;;;;;;;;5073360;28;20084;-78
2023/08/14 00:55:03;;;;;;;8.30;7.50;;;;;;;;;;5055295;28;20427;-78
2023/08/14 00:57:29;;;;;;;9.13;8.27;;;;;;;;;;5072806;28;20040;-77
2023/08/14 00:59:56;;;;;;;9.48;8.68;;;;;;;;;;5038862;28;20074;-78
2023/08/14 01:02:23;;;;;;;7.63;7.13;;;;;;;;;;5055583;28;20102;-78
2023/08/14 01:04:50;;;;;;;8.55;7.75;;;;;;;;;;5073319;28;20480;-78
2023/08/14 01:07:16;;;;;;;10.90;8.27;;;;;;;;;;5055369;28;20048;-78
2023/08/14 01:09:42;;;;;;;7.97;7.20;;;;;;;;;;5073072;28;20047;-78
2023/08/14 01:12:18;;;;;;;7.50;6.72;;;;;;;;;;5077120;28;20041;-78
2023/08/14 01:14:46;;;;;;;7.07;6.57;;;;;;;;;;5059523;28;20101;-77
2023/08/14 01:17:14;;;;;;;7.15;6.45;;;;;;;;;;5059572;28;20037;-78
2023/08/14 01:19:42;;;;;;;6.55;6.10;;;;;;;;;;5059137;28;20044;-78
2023/08/14 01:22:21;;;;;;;8.32;7.65;;;;;;;;;;5076690;28;20469;-78
2023/08/14 01:24:59;;;;;;;8.52;7.70;;;;;;;;;;5059271;28;20041;-78
2023/08/14 01:27:26;;;;;;;6.95;6.45;;;;;;;;;;5058811;28;20036;-77
2023/08/14 01:29:55;;;;;;;7.05;6.43;;;;;;;;;;5042762;28;20085;-78
2023/08/14 01:32:21;;;;;;;7.47;6.55;;;;;;;;;;5059323;28;20065;-78
2023/08/14 01:34:47;;;;;;;7.65;6.88;;;;;;;;;;5059093;28;20494;-78
2023/08/14 01:37:26;;;;;;;7.32;6.65;;;;;;;;;;5059306;28;20430;-77
2023/08/14 01:40:15;;;;;;;7.40;6.82;;;;;;;;;;5058349;28;20036;-77
2023/08/14 01:42:42;;;;;;;6.22;5.80;;;;;;;;;;5059237;28;20036;-77
2023/08/14 01:45:18;;;;;;;7.93;7.13;;;;;;;;;;5058915;28;20044;-77
2023/08/14 01:47:45;;;;;;;7.60;6.93;;;;;;;;;;5077099;28;20062;-77
2023/08/14 01:50:13;;;;;;;7.72;7.03;;;;;;;;;;5058998;28;20510;-77
2023/08/14 01:52:39;;;;;;;7.70;7.00;;;;;;;;;;5058871;28;20036;-78
2023/08/14 01:55:06;;;;;;;7.22;6.60;;;;;;;;;;5042450;28;20415;-77
2023/08/14 01:57:33;;;;;;;7.38;6.88;;;;;;;;;;5057951;28;20048;-77
2023/08/14 01:59:59;;;;;;;8.05;6.47;;;;;;;;;;5041920;28;20458;-78
2023/08/14 02:02:25;;;;;;;5.60;5.15;;;;;;;;;;5076550;28;20036;-77
2023/08/14 02:04:51;;;;;;;6.43;5.82;;;;;;;;;;5058689;28;20046;-78
2023/08/14 02:07:17;;;;;;;7.00;5.65;;;;;;;;;;5058463;28;20083;-78
2023/08/14 02:09:43;;;;;;;7.30;6.57;;;;;;;;;;5058526;28;20140;-78
2023/08/14 02:12:09;;;;;;;6.05;5.65;;;;;;;;;;5058323;28;20062;-78
2023/08/14 02:14:36;;;;;;;6.05;5.40;;;;;;;;;;5058405;28;20123;-77
2023/08/14 02:17:02;;;;;;;6.70;6.00;;;;;;;;;;5058463;28;20419;-77
2023/08/14 02:19:28;;;;;;;7.93;6.28;;;;;;;;;;5058299;28;20036;-77
2023/08/14 02:21:54;;;;;;;10.27;6.50;;;;;;;;;;5075184;28;20127;-77
2023/08/14 02:24:20;;;;;;;6.75;6.15;;;;;;;;;;5058211;28;20090;-77
2023/08/14 02:26:46;;;;;;;5.93;5.43;;;;;;;;;;5057581;28;20048;-77
2023/08/14 02:29:12;;;;;;;6.63;5.68;;;;;;;;;;5058368;28;20048;-78
2023/08/14 02:31:39;;;;;;;5.25;4.75;;;;;;;;;;5076225;28;20040;-77
2023/08/14 02:34:06;;;;;;;6.65;6.10;;;;;;;;;;5041804;28;20051;-77
2023/08/14 02:36:32;;;;;;;5.53;5.13;;;;;;;;;;5058043;28;20048;-77
2023/08/14 02:38:58;;;;;;;9.57;6.38;;;;;;;;;;5041169;28;20388;-78
2023/08/14 02:41:24;;;;;;;6.50;5.85;;;;;;;;;;5057486;28;20055;-77
2023/08/14 02:43:50;;;;;;;6.35;5.50;;;;;;;;;;5057815;28;20384;-78
2023/08/14 02:46:16;;;;;;;6.03;5.43;;;;;;;;;;5057910;28;20040;-77
2023/08/14 02:48:45;;;;;;;8.95;6.65;;;;;;;;;;5075559;28;20040;-78
2023/08/14 02:51:11;;;;;;;12.18;8.80;;;;;;;;;;5040922;28;20046;-78
2023/08/14 02:53:37;;;;;;;7.93;5.90;;;;;;;;;;5075448;28;20132;-77
2023/08/14 02:56:03;;;;;;;9.55;7.10;;;;;;;;;;5040969;28;20063;-77
2023/08/14 02:58:30;;;;;;;6.57;6.07;;;;;;;;;;5056669;28;20066;-77
2023/08/14 03:00:56;;;;;;;6.88;6.28;;;;;;;;;;5040431;28;20044;-78
2023/08/14 03:03:22;;;;;;;8.90;7.13;;;;;;;;;;5057375;28;20044;-78
2023/08/14 03:05:48;;;;;;;8.40;6.35;;;;;;;;;;5057509;28;20133;-77
2023/08/14 03:08:15;;;;;;;7.57;5.90;;;;;;;;;;5057282;28;20082;-78
2023/08/14 03:10:41;;;;;;;9.45;7.00;;;;;;;;;;5057033;28;20048;-78
2023/08/14 03:13:07;;;;;;;7.55;6.65;;;;;;;;;;5057483;28;20071;-77
2023/08/14 03:15:33;;;;;;;6.80;6.15;;;;;;;;;;5057378;28;20046;-77
2023/08/14 03:17:59;;;;;;;8.05;7.03;;;;;;;;;;5040328;28;20047;-77
2023/08/14 03:20:25;;;;;;;10.85;7.78;;;;;;;;;;5056957;28;20422;-77
2023/08/14 03:22:51;;;;;;;9.05;7.75;;;;;;;;;;5057293;28;20058;-78
2023/08/14 03:25:17;;;;;;;7.28;6.05;;;;;;;;;;5075003;28;20048;-78
2023/08/14 03:27:43;;;;;;;6.95;6.13;;;;;;;;;;5039834;28;20523;-78
2023/08/14 03:30:10;;;;;;;6.30;5.57;;;;;;;;;;5057578;28;20044;-77
2023/08/14 03:32:36;;;;;;;9.68;7.45;;;;;;;;;;5057149;28;20040;-78
2023/08/14 03:35:02;;;;;;;7.63;6.78;;;;;;;;;;5074546;28;20098;-78
2023/08/14 03:37:28;;;;;;;9.55;7.53;;;;;;;;;;5039887;28;20103;-78
2023/08/14 03:39:54;;;;;;;8.43;6.38;;;;;;;;;;5056635;28;20153;-78
2023/08/14 03:42:21;;;;;;;8.85;7.18;;;;;;;;;;5056842;28;20131;-78
2023/08/14 03:44:47;;;;;;;8.70;6.40;;;;;;;;;;5056743;28;20056;-78
2023/08/14 03:47:13;;;;;;;12.32;6.60;;;;;;;;;;5040079;28;20484;-78
2023/08/14 03:49:39;;;;;;;6.47;5.97;;;;;;;;;;5074527;28;20040;-78
2023/08/14 03:52:05;;;;;;;7.65;6.95;;;;;;;;;;5056024;28;20052;-78
2023/08/14 03:54:31;;;;;;;9.98;7.75;;;;;;;;;;5036552;28;20037;-78
2023/08/14 03:56:57;;;;;;;7.55;6.82;;;;;;;;;;5036511;28;20041;-77
2023/08/14 03:59:23;;;;;;;11.07;7.05;;;;;;;;;;5036427;28;20041;-78
2023/08/14 04:01:49;;;;;;;8.00;7.28;;;;;;;;;;5036336;28;20437;-78
2023/08/14 04:04:15;;;;;;;8.40;7.15;;;;;;;;;;5020049;28;20041;-78
2023/08/14 04:06:44;;;;;;;7.80;7.03;;;;;;;;;;5036466;28;20044;-78
2023/08/14 04:09:10;;;;;;;6.90;6.35;;;;;;;;;;5036198;28;20048;-78
2023/08/14 04:11:36;;;;;;;6.78;5.97;;;;;;;;;;5054050;28;20041;-78
2023/08/14 04:14:02;;;;;;;9.20;6.28;;;;;;;;;;5053998;28;20481;-78
2023/08/14 04:16:41;;;;;;;6.38;5.85;;;;;;;;;;5036331;28;20091;-78
2023/08/14 04:19:13;;;;;;;7.97;5.97;;;;;;;;;;5035992;28;20041;-78
2023/08/14 04:21:39;;;;;;;7.78;6.18;;;;;;;;;;5054425;28;20080;-78
2023/08/14 04:24:05;;;;;;;7.25;6.50;;;;;;;;;;5036263;28;20056;-78
2023/08/14 04:26:31;;;;;;;9.15;6.72;;;;;;;;;;5036256;28;20163;-78
2023/08/14 04:28:57;;;;;;;8.23;6.32;;;;;;;;;;5053396;28;20407;-78
2023/08/14 04:31:23;;;;;;;8.23;7.38;;;;;;;;;;5036151;28;20045;-78
2023/08/14 04:33:50;;;;;;;8.48;7.30;;;;;;;;;;5035814;28;20085;-78
2023/08/14 04:36:16;;;;;;;9.65;6.68;;;;;;;;;;5019747;28;20055;-78
2023/08/14 04:38:42;;;;;;;9.32;7.63;;;;;;;;;;5053573;28;20033;-78
2023/08/14 04:41:08;;;;;;;11.02;7.03;;;;;;;;;;5035778;28;20380;-78
2023/08/14 04:43:34;;;;;;;9.48;7.13;;;;;;;;;;5034651;28;20041;-79
2023/08/14 04:46:08;;;;;;;10.02;6.85;;;;;;;;;;5034610;28;20163;-79
2023/08/14 04:48:34;;;;;;;8.23;6.25;;;;;;;;;;5035563;28;20523;-78
2023/08/14 04:51:00;;;;;;;8.02;7.10;;;;;;;;;;5035982;28;20380;-78
2023/08/14 04:53:26;;;;;;;8.98;6.97;;;;;;;;;;5036050;28;20053;-78
2023/08/14 04:55:52;;;;;;;7.57;6.38;;;;;;;;;;5035892;28;20040;-78
2023/08/14 04:58:18;;;;;;;7.93;7.10;;;;;;;;;;5035054;28;20141;-78
2023/08/14 05:00:44;;;;;;;11.48;7.35;;;;;;;;;;5035668;28;20377;-78
2023/08/14 05:03:10;;;;;;;8.57;6.93;;;;;;;;;;5035508;28;20077;-78
2023/08/14 05:05:36;;;;;;;6.82;6.20;;;;;;;;;;5035795;28;20048;-78
2023/08/14 05:08:03;;;;;;;9.68;7.05;;;;;;;;;;5035738;28;20053;-78
2023/08/14 05:10:29;;;;;;;6.90;6.25;;;;;;;;;;5035578;28;20052;-78
2023/08/14 05:12:55;;;;;;;8.35;6.47;;;;;;;;;;5035204;28;20467;-78
2023/08/14 05:15:21;;;;;;;7.30;6.60;;;;;;;;;;5053295;28;20049;-78
2023/08/14 05:17:47;;;;;;;8.05;6.20;;;;;;;;;;5035242;28;20128;-78
2023/08/14 05:20:14;;;;;;;8.93;7.90;;;;;;;;;;5035770;28;20044;-78
2023/08/14 05:22:42;;;;;;;10.82;7.57;;;;;;;;;;5035821;28;20072;-78
2023/08/14 05:25:09;;;;;;;9.38;6.95;;;;;;;;;;5035588;28;20052;-78
2023/08/14 05:27:36;;;;;;;7.78;7.03;;;;;;;;;;5035008;28;20049;-78
2023/08/14 05:30:03;;;;;;;9.25;6.60;;;;;;;;;;5019176;28;20230;-78
2023/08/14 05:32:29;;;;;;;8.27;7.45;;;;;;;;;;5053095;28;20132;-78
2023/08/14 05:34:55;;;;;;;6.75;6.05;;;;;;;;;;5035307;28;20071;-78
2023/08/14 05:37:21;;;;;;;10.18;7.47;;;;;;;;;;5035273;28;20045;-78
2023/08/14 05:39:47;;;;;;;7.15;5.80;;;;;;;;;;5035017;28;20374;-78
2023/08/14 05:42:15;;;;;;;7.38;6.25;;;;;;;;;;5035083;28;20052;-78
2023/08/14 05:44:41;;;;;;;7.10;6.20;;;;;;;;;;5035278;28;20084;-78
2023/08/14 05:47:07;;;;;;;8.50;6.10;;;;;;;;;;5035463;28;20085;-78
2023/08/14 05:49:33;;;;;;;10.43;6.35;;;;;;;;;;5035565;28;20060;-78
2023/08/14 05:51:59;;;;;;;7.88;6.32;;;;;;;;;;5002463;28;20041;-78
2023/08/14 05:54:25;;;;;;;9.10;6.30;;;;;;;;;;5019108;28;20045;-78
2023/08/14 05:56:51;;;;;;;11.38;7.45;;;;;;;;;;5052244;28;20060;-79
2023/08/14 05:59:17;;;;;;;10.00;6.68;;;;;;;;;;5038333;28;20159;-79
2023/08/14 06:01:45;;;;;;;7.00;6.28;;;;;;;;;;5022440;28;20052;-78
2023/08/14 06:04:12;;;;;;;8.43;5.97;;;;;;;;;;5038953;28;20037;-78
2023/08/14 06:06:38;;;;;;;8.45;6.07;;;;;;;;;;5022473;28;20052;-78
2023/08/14 06:09:04;;;;;;;6.38;5.78;;;;;;;;;;5038768;28;20048;-79
2023/08/14 06:11:30;;;;;;;8.43;6.20;;;;;;;;;;5022068;28;20131;-78
2023/08/14 06:13:56;;;;;;;9.32;5.60;;;;;;;;;;5038404;28;20041;-78
2023/08/14 06:16:22;;;;;;;7.60;5.78;;;;;;;;;;5038587;28;20040;-78
2023/08/14 06:18:48;;;;;;;9.88;6.03;;;;;;;;;;5038518;28;20094;-78
2023/08/14 06:21:14;;;;;;;10.85;5.35;;;;;;;;;;5038377;28;20041;-78
2023/08/14 06:23:40;;;;;;;5.97;5.40;;;;;;;;;;5038469;28;20048;-78
2023/08/14 06:26:06;;;;;;;6.85;5.53;;;;;;;;;;5038500;28;20038;-78
2023/08/14 06:28:33;;;;;;;7.22;5.20;;;;;;;;;;5021236;28;20045;-78
2023/08/14 06:31:02;;;;;;;8.95;5.03;;;;;;;;;;5022006;28;20041;-78
2023/08/14 06:33:29;;;;;;;9.25;4.80;;;;;;;;;;5038050;28;20048;-78
2023/08/14 06:35:55;;;;;;;7.40;5.00;;;;;;;;;;5034832;28;20368;-79
2023/08/14 06:38:21;;;;;;;7.75;4.60;;;;;;;;;;5044972;28;20052;-79
2023/08/14 06:40:47;;;;;;;6.63;5.63;;;;;;;;;;5053824;28;20048;-78
2023/08/14 06:43:13;;;;;;;9.25;5.32;;;;;;;;;;5037439;28;20048;-78
2023/08/14 06:45:39;;;;;;;6.72;4.35;;;;;;;;;;5055796;28;20492;-78
2023/08/14 06:48:06;;;;;;;8.43;5.18;;;;;;;;;;5038159;28;20041;-78
2023/08/14 06:50:32;;;;;;;6.22;5.00;;;;;;;;;;5038026;28;20049;-78
2023/08/14 06:52:58;;;;;;;6.70;4.80;;;;;;;;;;5037861;28;20039;-78
2023/08/14 06:55:24;;;;;;;6.68;4.57;;;;;;;;;;5037700;28;20052;-78
2023/08/14 06:57:50;;;;;;;6.35;5.10;;;;;;;;;;5036799;28;20495;-78
2023/08/14 07:00:16;;;;;;;5.15;4.68;;;;;;;;;;5037633;28;20095;-78
2023/08/14 07:02:47;;;;;;;8.25;5.10;;;;;;;;;;5037726;28;20052;-78
2023/08/14 07:05:14;;;;;;;6.00;4.53;;;;;;;;;;5037762;28;20045;-78
2023/08/14 07:07:40;;;;;;;6.50;4.55;;;;;;;;;;5037243;28;20076;-78
2023/08/14 07:10:07;;;;;;;6.13;5.00;;;;;;;;;;5037263;28;20080;-78
2023/08/14 07:12:33;;;;;;;7.18;5.07;;;;;;;;;;5055045;28;20049;-78
2023/08/14 07:15:00;;;;;;;8.75;4.78;;;;;;;;;;5037585;28;20044;-78
2023/08/14 07:17:27;;;;;;;7.50;5.53;;;;;;;;;;5037662;28;20392;-78
2023/08/14 07:19:53;;;;;;;8.65;5.95;;;;;;;;;;5037454;28;20396;-78
2023/08/14 07:22:19;;;;;;;8.73;4.88;;;;;;;;;;5037360;28;20040;-78
2023/08/14 07:24:45;;;;;;;6.20;4.95;;;;;;;;;;5036654;28;20045;-78
2023/08/14 07:27:11;;;;;;;6.50;5.60;;;;;;;;;;5036443;28;20053;-79
2023/08/14 07:29:37;;;;;;;8.93;5.28;;;;;;;;;;5020472;28;20045;-79
2023/08/14 07:32:03;;;;;;;8.02;6.22;;;;;;;;;;5037099;28;20041;-78
2023/08/14 07:34:29;;;;;;;9.20;6.20;;;;;;;;;;5037040;28;20443;-79
2023/08/14 07:36:55;;;;;;;6.72;6.07;;;;;;;;;;5037053;28;20083;-78
2023/08/14 07:39:22;;;;;;;10.80;5.15;;;;;;;;;;5036659;28;20094;-78
2023/08/14 07:41:48;;;;;;;7.63;5.38;;;;;;;;;;5036360;28;20156;-79
2023/08/14 07:44:14;;;;;;;5.75;5.10;;;;;;;;;;5037297;28;20045;-80
2023/08/14 07:46:40;;;;;;;7.32;5.20;;;;;;;;;;5036907;28;20086;-78
2023/08/14 07:49:06;;;;;;;6.40;5.18;;;;;;;;;;5036841;28;20369;-78
2023/08/14 07:51:32;;;;;;;6.35;4.93;;;;;;;;;;5036687;28;20076;-78
2023/08/14 07:53:58;;;;;;;5.53;4.05;;;;;;;;;;5054343;28;20041;-78
2023/08/14 07:56:24;;;;;;;5.55;3.78;;;;;;;;;;5054049;28;20041;-80
2023/08/14 07:58:50;;;;;;;7.78;3.67;;;;;;;;;;5035884;28;20037;-81
2023/08/14 08:01:17;;;;;;;5.93;3.08;;;;;;;;;;5036677;28;20483;-78
2023/08/14 08:03:43;;;;;;;3.92;3.20;;;;;;;;;;5036332;28;20147;-79
2023/08/14 08:06:09;;;;;;;5.47;3.00;;;;;;;;;;5036666;28;20045;-78
2023/08/14 08:08:35;;;;;;;5.18;2.80;;;;;;;;;;5036296;28;20048;-79
2023/08/14 08:11:01;;;;;;;6.90;2.78;;;;;;;;;;5036590;28;20045;-79
2023/08/14 08:13:28;;;;;;;5.50;3.10;;;;;;;;;;5037049;28;20041;-79
2023/08/14 08:15:54;;;;;;;5.13;2.72;;;;;;;;;;5036520;28;20045;-79
2023/08/14 08:18:20;;;;;;;4.00;2.00;;;;;;;;;;5053769;28;20041;-77
2023/08/14 08:20:46;;;;;;;4.00;2.00;;;;;;;;;;5035489;28;20091;-79
2023/08/14 08:23:12;;;;;;;2.17;1.77;;;;;;;;;;5036227;28;20041;-79
2023/08/14 08:25:38;;;;;;;4.68;2.10;;;;;;;;;;5035901;28;20080;-78
2023/08/14 08:28:04;;;;;;;3.88;1.80;;;;;;;;;;5035847;28;20043;-80
2023/08/14 08:30:30;;;;;;;4.40;2.25;;;;;;;;;;5036195;28;20049;-81
2023/08/14 08:32:56;;;;;;;4.13;2.58;;;;;;;;;;5035908;28;20404;-78
2023/08/14 08:35:22;;;;;;;8.05;2.20;;;;;;;;;;5035864;28;20045;-78
2023/08/14 08:37:48;;;;;;;5.20;2.20;;;;;;;;;;5035776;28;20037;-79
2023/08/14 08:40:15;;;;;;;3.17;1.27;;;;;;;;;;5035994;28;20048;-78
2023/08/14 08:42:42;;;;;;;3.13;1.10;;;;;;;;;;5035663;28;20110;-78
2023/08/14 08:45:08;;;;;;;3.15;1.38;;;;;;;;;;5019663;28;20354;-78
2023/08/14 08:47:37;;;;;;;6.22;1.40;;;;;;;;;;5019761;28;20444;-78
2023/08/14 08:50:04;;;;;;;2.90;1.10;;;;;;;;;;5035838;28;20053;-79
2023/08/14 08:52:31;;;;;;;2.53;1.00;;;;;;;;;;5035819;28;20045;-78
2023/08/14 08:55:00;;;;;;;3.40;0.68;;;;;;;;;;5036000;28;20401;-78
2023/08/14 08:57:26;;;;;;;3.65;1.10;;;;;;;;;;5035472;28;20047;-78
2023/08/14 08:59:53;;;;;;;3.05;1.10;;;;;;;;;;5035700;28;20365;-78
2023/08/14 09:02:19;;;;;;;3.88;1.30;;;;;;;;;;5036066;28;20092;-78
2023/08/14 09:04:45;;;;;;;2.83;1.05;;;;;;;;;;5035783;28;20075;-78
2023/08/14 09:07:12;;;;;;;1.92;0.70;;;;;;;;;;5035748;28;20045;-78
2023/08/14 09:09:38;;;;;;;5.25;1.00;;;;;;;;;;5036062;28;20354;-78
2023/08/14 09:12:04;;;;;;;5.75;1.50;;;;;;;;;;5053300;28;20051;-78
2023/08/14 09:14:30;;;;;;;4.75;1.08;;;;;;;;;;5053242;28;20404;-78
2023/08/14 09:16:58;;;;;;;4.32;1.13;;;;;;;;;;5035816;28;20133;-78
2023/08/14 09:19:24;;;;;;;4.10;1.25;;;;;;;;;;5035305;28;20052;-78
2023/08/14 09:21:50;;;;;;;1.50;0.80;;;;;;;;;;5019049;28;20393;-78
2023/08/14 09:24:16;;;;;;;4.25;0.93;;;;;;;;;;5035502;28;20048;-78
2023/08/14 09:26:43;;;;;;;2.75;0.80;;;;;;;;;;5053524;28;20044;-78
2023/08/14 09:29:10;;;;;;;3.53;0.70;;;;;;;;;;5035190;28;20076;-78
2023/08/14 09:31:36;;;;;;;3.35;0.60;;;;;;;;;;5036424;28;20049;-78
2023/08/14 09:34:02;;;;;;;3.38;1.00;;;;;;;;;;5039139;28;20382;-78
2023/08/14 09:36:34;;;;;;;5.00;0.90;;;;;;;;;;5039152;28;20033;-78
2023/08/14 09:39:01;;;;;;;1.98;0.60;;;;;;;;;;5022410;28;20071;-78
2023/08/14 09:41:27;;;;;;;3.05;0.80;;;;;;;;;;5038991;28;20473;-77
2023/08/14 09:43:53;;;;;;;4.53;0.57;;;;;;;;;;5056924;28;20049;-78
2023/08/14 09:46:19;;;;;;;2.95;0.60;;;;;;;;;;5039268;28;20052;-78
2023/08/14 09:48:47;;;;;;;3.30;0.60;;;;;;;;;;5038853;28;20357;-78
2023/08/14 09:51:17;;;;;;;2.90;0.70;;;;;;;;;;5038942;28;20032;-78
2023/08/14 09:53:57;;;;;;;3.33;0.70;;;;;;;;;;5022488;28;20045;-78
2023/08/14 09:56:24;;;;;;;2.30;0.60;;;;;;;;;;5039148;28;20045;-78
2023/08/14 09:58:50;;;;;;;1.63;0.60;;;;;;;;;;5022169;28;20123;-78
2023/08/14 10:01:17;;;;;;;3.67;0.68;;;;;;;;;;5022264;28;20383;-78
2023/08/14 10:03:46;;;;;;;1.95;0.60;;;;;;;;;;5056608;28;20057;-78
2023/08/14 10:06:13;;;;;;;3.50;0.70;;;;;;;;;;5038937;28;20048;-78
2023/08/14 10:08:39;;;;;;;2.20;0.43;;;;;;;;;;5039006;28;20132;-78
2023/08/14 10:11:06;;;;;;;3.80;0.60;;;;;;;;;;5022292;28;20095;-78
2023/08/14 10:13:36;;;;;;;3.40;0.65;;;;;;;;;;5038459;28;20067;-78
2023/08/14 10:16:03;;;;;;;2.03;0.40;;;;;;;;;;5038469;28;20037;-78
2023/08/14 10:18:29;;;;;;;1.63;0.38;;;;;;;;;;5056255;28;20041;-78
2023/08/14 10:20:57;;;;;;;1.25;0.30;;;;;;;;;;5038660;28;20071;-78
2023/08/14 10:23:24;;;;;;;1.20;0.40;;;;;;;;;;5038528;28;20041;-78
2023/08/14 10:25:50;;;;;;;1.75;0.40;;;;;;;;;;5038236;28;20128;-78
2023/08/14 10:28:18;;;;;;;2.83;0.88;;;;;;;;;;5037564;28;20079;-78
2023/08/14 10:30:45;;;;;;;2.97;0.40;;;;;;;;;;5038326;28;20041;-78
2023/08/14 10:33:12;;;;;;;3.53;0.40;;;;;;;;;;5039155;28;20099;-78
2023/08/14 10:35:51;;;;;;;2.78;0.70;;;;;;;;;;5038330;28;20045;-78
2023/08/14 10:38:19;;;;;;;3.53;0.60;;;;;;;;;;5022111;28;20053;-79
2023/08/14 10:40:52;;;;;;;2.65;0.40;;;;;;;;;;5038054;28;20049;-78
2023/08/14 10:43:18;;;;;;;4.43;0.45;;;;;;;;;;5037293;28;20160;-79
2023/08/14 10:45:44;;;;;;;1.73;0.38;;;;;;;;;;5038222;28;20488;-78
2023/08/14 10:48:10;;;;;;;2.92;0.30;;;;;;;;;;5055721;28;20045;-79
2023/08/14 10:50:36;;;;;;;2.33;0.50;;;;;;;;;;5021489;28;20379;-78
2023/08/14 10:53:04;;;;;;;2.45;0.40;;;;;;;;;;5037746;28;20045;-78
2023/08/14 10:55:42;;;;;;;2.53;0.43;;;;;;;;;;5037525;28;20087;-79
2023/08/14 10:58:26;;;;;;;2.20;0.45;;;;;;;;;;5037115;28;20043;-78
2023/08/14 11:00:52;;;;;;;2.53;0.50;;;;;;;;;;5038247;28;20052;-79
2023/08/14 11:03:18;;;;;;;2.53;0.40;;;;;;;;;;5021358;28;20126;-79
2023/08/14 11:05:45;;;;;;;3.22;0.57;;;;;;;;;;5021462;28;20383;-79
2023/08/14 11:08:12;;;;;;;2.00;0.38;;;;;;;;;;5037527;28;20041;-79
2023/08/14 11:10:39;;;;;;;1.80;0.40;;;;;;;;;;5021068;28;20098;-79
2023/08/14 11:13:06;;;;;;;3.05;0.40;;;;;;;;;;5020992;28;20055;-79
2023/08/14 11:15:33;;;;;;;4.20;0.68;;;;;;;;;;5021054;28;20094;-79
2023/08/14 11:17:59;;;;;;;2.05;0.50;;;;;;;;;;5052971;28;20048;-79
2023/08/14 11:20:32;;;;;;;3.38;0.60;;;;;;;;;;5057156;28;20094;-78
2023/08/14 11:23:01;;;;;;;2.42;0.40;;;;;;;;;;5057197;28;20072;-79
2023/08/14 11:25:27;;;;;;;1.90;0.40;;;;;;;;;;5057531;28;20090;-79
2023/08/14 11:27:55;;;;;;;2.33;0.50;;;;;;;;;;5040323;28;20055;-80
2023/08/14 11:30:22;;;;;;;2.00;0.50;;;;;;;;;;5053142;28;20048;-79
2023/08/14 11:32:49;;;;;;;1.52;0.32;;;;;;;;;;5035499;28;20559;-80
2023/08/14 11:35:16;;;;;;;2.05;0.57;;;;;;;;;;5036002;28;20115;-80
2023/08/14 11:37:42;;;;;;;1.42;0.50;;;;;;;;;;5036131;28;20052;-80
2023/08/14 11:40:09;;;;;;;2.25;0.30;;;;;;;;;;5035943;28;20423;-79
2023/08/14 11:42:36;;;;;;;1.08;0.32;;;;;;;;;;5051276;28;20049;-79
2023/08/14 11:45:03;;;;;;;2.47;0.50;;;;;;;;;;5055658;28;20158;-79
2023/08/14 11:47:47;;;;;;;2.65;0.30;;;;;;;;;;5036044;28;20041;-80
2023/08/14 11:50:13;;;;;;;1.45;0.30;;;;;;;;;;5048105;28;20527;-79
2023/08/14 11:52:40;;;;;;;2.15;0.30;;;;;;;;;;5056655;28;20110;-79
2023/08/14 11:55:07;;;;;;;1.50;0.40;;;;;;;;;;5055753;28;20425;-79
2023/08/14 11:57:33;;;;;;;3.35;0.50;;;;;;;;;;5056065;28;20091;-79
2023/08/14 12:00:00;;;;;;;1.52;0.30;;;;;;;;;;5056260;28;20194;-79
2023/08/14 12:02:28;;;;;;;3.15;0.70;;;;;;;;;;5056622;28;20081;-80
2023/08/14 12:04:54;;;;;;;2.95;0.50;;;;;;;;;;5073818;28;20082;-80
2023/08/14 12:07:21;;;;;;;2.40;0.30;;;;;;;;;;5056557;28;20483;-80
2023/08/14 12:09:48;;;;;;;2.08;0.50;;;;;;;;;;5043683;28;20059;-79
2023/08/14 12:12:14;;;;;;;1.73;0.40;;;;;;;;;;5016751;28;20129;-80
2023/08/14 12:14:41;;;;;;;2.38;0.50;;;;;;;;;;5035625;28;20131;-79
2023/08/14 12:17:11;;;;;;;2.63;0.30;;;;;;;;;;5036090;28;20037;-79
2023/08/14 12:19:38;;;;;;;1.65;0.40;;;;;;;;;;5035523;28;20047;-79
2023/08/14 12:22:04;;;;;;;2.53;0.40;;;;;;;;;;5033461;28;20365;-79
2023/08/14 12:24:38;;;;;;;2.05;0.63;;;;;;;;;;5049509;28;20437;-79
2023/08/14 12:27:04;;;;;;;3.33;0.30;;;;;;;;;;5056066;28;20107;-79
2023/08/14 12:29:30;;;;;;;1.55;0.40;;;;;;;;;;5073209;28;20041;-80
2023/08/14 12:31:59;;;;;;;1.90;0.50;;;;;;;;;;5056207;28;20044;-79
2023/08/14 12:34:25;;;;;;;2.72;0.40;;;;;;;;;;5039377;28;20044;-79
2023/08/14 12:36:51;;;;;;;2.45;0.52;;;;;;;;;;5055910;28;20042;-79
2023/08/14 12:39:17;;;;;;;2.03;0.32;;;;;;;;;;5055879;28;20414;-79
2023/08/14 12:41:43;;;;;;;3.42;0.32;;;;;;;;;;5055682;28;20048;-80
2023/08/14 12:44:09;;;;;;;2.83;0.50;;;;;;;;;;5056038;28;20044;-79
2023/08/14 12:46:35;;;;;;;3.17;0.40;;;;;;;;;;5073608;28;20045;-79
2023/08/14 12:49:02;;;;;;;3.60;0.40;;;;;;;;;;5055853;28;20052;-80
2023/08/14 12:51:28;;;;;;;1.05;0.30;;;;;;;;;;5045826;28;20044;-79
2023/08/14 12:53:54;;;;;;;2.35;0.40;;;;;;;;;;5035829;28;20056;-79
2023/08/14 12:56:20;;;;;;;2.42;0.50;;;;;;;;;;5019520;28;20060;-80
2023/08/14 12:58:46;;;;;;;3.72;0.50;;;;;;;;;;5030742;28;20130;-79
2023/08/14 13:01:12;;;;;;;1.25;0.30;;;;;;;;;;5051715;28;20048;-80
2023/08/14 13:03:38;;;;;;;1.75;0.40;;;;;;;;;;5035361;28;20055;-79
2023/08/14 13:06:06;;;;;;;1.55;0.38;;;;;;;;;;5033172;28;20061;-80
2023/08/14 13:08:32;;;;;;;3.75;0.70;;;;;;;;;;5036952;28;20055;-80
2023/08/14 13:10:58;;;;;;;2.95;0.50;;;;;;;;;;5055029;28;20052;-79
2023/08/14 13:13:26;;;;;;;2.15;0.40;;;;;;;;;;5035349;28;20041;-79
2023/08/14 13:15:52;;;;;;;2.83;0.55;;;;;;;;;;5021958;28;20056;-80
2023/08/14 13:18:19;;;;;;;1.45;0.32;;;;;;;;;;5036795;28;20476;-80
2023/08/14 13:20:45;;;;;;;2.63;0.40;;;;;;;;;;5056079;28;20136;-80
2023/08/14 13:23:11;;;;;;;4.15;0.60;;;;;;;;;;5038682;28;20152;-81
2023/08/14 13:25:37;;;;;;;1.85;0.50;;;;;;;;;;5038271;28;20045;-79
2023/08/14 13:28:03;;;;;;;1.50;0.43;;;;;;;;;;5037339;28;20558;-80
2023/08/14 13:30:30;;;;;;;2.58;0.60;;;;;;;;;;5038413;28;20044;-80
2023/08/14 13:32:56;;;;;;;2.50;0.40;;;;;;;;;;5038440;28;20036;-81
2023/08/14 13:35:22;;;;;;;2.92;0.40;;;;;;;;;;5055945;28;20097;-80
2023/08/14 13:37:49;;;;;;;1.52;0.40;;;;;;;;;;5038264;28;20060;-80
2023/08/14 13:40:15;;;;;;;2.08;0.40;;;;;;;;;;5037588;28;20477;-81
2023/08/14 13:42:41;;;;;;;1.90;0.40;;;;;;;;;;5037423;28;20095;-81
2023/08/14 13:45:07;;;;;;;3.95;0.50;;;;;;;;;;5038414;28;20447;-79
2023/08/14 13:47:33;;;;;;;2.17;0.40;;;;;;;;;;5055202;28;20084;-80
2023/08/14 13:49:59;;;;;;;2.13;0.50;;;;;;;;;;5037895;28;20110;-80
2023/08/14 13:52:25;;;;;;;2.35;0.30;;;;;;;;;;5037992;28;20049;-79
2023/08/14 13:54:52;;;;;;;1.42;0.50;;;;;;;;;;5038048;28;20040;-80
2023/08/14 13:57:18;;;;;;;1.40;0.30;;;;;;;;;;5054625;28;20485;-84
2023/08/14 13:59:44;;;;;;;2.00;0.30;;;;;;;;;;5021084;28;20112;-80
2023/08/14 14:02:12;;;;;;;1.92;0.50;;;;;;;;;;5021564;28;20106;-80
2023/08/14 14:04:38;;;;;;;4.30;0.38;;;;;;;;;;5055525;28;20056;-80
2023/08/14 14:07:05;;;;;;;1.73;0.40;;;;;;;;;;5021149;28;20523;-80
2023/08/14 14:09:31;;;;;;;2.45;0.40;;;;;;;;;;5037225;28;20056;-81
2023/08/14 14:11:57;;;;;;;3.75;0.40;;;;;;;;;;5036639;28;20052;-79
2023/08/14 14:14:23;;;;;;;3.03;0.57;;;;;;;;;;5037769;28;20392;-80
2023/08/14 14:16:55;;;;;;;2.53;0.35;;;;;;;;;;5037004;28;20041;-83
2023/08/14 14:19:21;;;;;;;1.77;0.32;;;;;;;;;;5019344;28;20044;-79
2023/08/14 14:21:47;;;;;;;1.38;0.35;;;;;;;;;;5037359;28;20179;-80
2023/08/14 14:24:14;;;;;;;1.75;0.40;;;;;;;;;;5035315;28;20056;-80
2023/08/14 14:26:40;;;;;;;1.33;0.47;;;;;;;;;;5037421;28;20044;-80
2023/08/14 14:29:06;;;;;;;1.55;0.38;;;;;;;;;;5018890;28;20044;-80
2023/08/14 14:31:32;;;;;;;2.13;0.40;;;;;;;;;;5020670;28;20045;-80
2023/08/14 14:33:58;;;;;;;2.03;0.40;;;;;;;;;;5038278;28;20156;-79
2023/08/14 14:36:24;;;;;;;1.63;0.40;;;;;;;;;;5037957;28;20501;-79
2023/08/14 14:38:50;;;;;;;1.98;0.50;;;;;;;;;;5021452;28;20037;-79
2023/08/14 14:41:16;;;;;;;1.73;0.50;;;;;;;;;;5037592;28;20040;-80